Port Taufiq, Egypt
Current Conditions -  °F | °C
As of 5:30 AM on Sunday 25 Jan 2015 (Local Time) from HECA Reporting Station
Haze Haze  
Wind Chill: 55°   Ceiling: Unl
Heat Index: 55°   Visibility: 2.5mi
Dew Point: 55°   Wind: 3mph
Humidity: 100%   Direction: 70°ENE
Pressure: 29.94"   Gusts: NA
Location:  29.95°N, 32.57°E
Report Text: HECA 250330Z 07003KT 4000 BR NSC 13/13 Q1014 TEMPO 2000
Loading
Personal Weather Stations






























Interactive Weather Map New forecast layout! Learn more

10-Day Weather Forecast

Advertisements
Track Severe Weather on mobile